Terminal Aerodrome Forecast
Issued by NWS

Home | Current Version | Previous Version | Text Only | Print | Product List | Glossary On
Versions: 1 2 3 4 5 6 7 8 9 10 11 12 13 14
000
FTUS46 KMFR 300200 AAA
TAFLMT
TAF AMD
KLMT 300218Z 3002/3024 30012KT 6SM FU SCT060
     FM300500 28007KT 6SM FU SKC
     FM300700 VRB02KT 6SM FU SKC
     FM301200 VRB03KT P6SM SKC
     FM302100 31017G27KT P6SM SCT100=

USA.gov is the U.S. government's official web portal to all federal, state and local government web resources and services.